sensor_id;sensor_type;location;lat;lon;timestamp;pressure;altitude;pressure_sealevel;temperature;humidity
42601;BME280;28229;48.856;9.088;2024-02-04T00:01:55;99046.34;;;7.28;94.68
42601;BME280;28229;48.856;9.088;2024-02-04T00:04:21;99046.50;;;7.27;95.00
42601;BME280;28229;48.856;9.088;2024-02-04T00:06:49;99041.09;;;7.28;94.91
42601;BME280;28229;48.856;9.088;2024-02-04T00:09:15;99039.44;;;7.27;94.72
42601;BME280;28229;48.856;9.088;2024-02-04T00:11:41;99027.53;;;7.33;94.11
42601;BME280;28229;48.856;9.088;2024-02-04T00:14:07;99026.69;;;7.32;94.28
42601;BME280;28229;48.856;9.088;2024-02-04T00:16:34;99011.34;;;7.29;94.16
42601;BME280;28229;48.856;9.088;2024-02-04T00:19:01;99012.16;;;7.30;94.15
42601;BME280;28229;48.856;9.088;2024-02-04T00:21:27;98998.09;;;7.22;94.41
42601;BME280;28229;48.856;9.088;2024-02-04T00:23:53;98997.47;;;7.12;94.76
42601;BME280;28229;48.856;9.088;2024-02-04T00:26:19;98995.19;;;7.09;94.48
42601;BME280;28229;48.856;9.088;2024-02-04T00:28:45;99001.75;;;7.05;94.66
42601;BME280;28229;48.856;9.088;2024-02-04T00:31:11;99009.59;;;7.05;94.64
42601;BME280;28229;48.856;9.088;2024-02-04T00:33:37;99004.03;;;7.08;94.59
42601;BME280;28229;48.856;9.088;2024-02-04T00:36:04;98996.53;;;6.97;95.03
42601;BME280;28229;48.856;9.088;2024-02-04T00:38:30;98990.16;;;6.99;94.60
42601;BME280;28229;48.856;9.088;2024-02-04T00:40:56;99004.25;;;6.90;95.14
42601;BME280;28229;48.856;9.088;2024-02-04T00:43:22;99010.13;;;6.92;95.50
42601;BME280;28229;48.856;9.088;2024-02-04T00:45:49;98994.28;;;6.85;95.39
42601;BME280;28229;48.856;9.088;2024-02-04T00:48:15;98992.66;;;6.84;95.58
42601;BME280;28229;48.856;9.088;2024-02-04T00:50:41;99005.41;;;6.79;95.97
42601;BME280;28229;48.856;9.088;2024-02-04T00:53:07;99016.38;;;6.83;95.68
42601;BME280;28229;48.856;9.088;2024-02-04T00:55:34;99017.97;;;6.84;95.79
42601;BME280;28229;48.856;9.088;2024-02-04T00:58:00;99009.66;;;6.80;96.30
42601;BME280;28229;48.856;9.088;2024-02-04T01:00:27;99007.03;;;6.80;96.34
42601;BME280;28229;48.856;9.088;2024-02-04T01:02:53;99018.13;;;6.82;96.18
42601;BME280;28229;48.856;9.088;2024-02-04T01:05:19;99005.53;;;6.86;96.31
42601;BME280;28229;48.856;9.088;2024-02-04T01:07:46;99001.47;;;6.75;96.58
42601;BME280;28229;48.856;9.088;2024-02-04T01:10:12;99009.97;;;6.85;96.09
42601;BME280;28229;48.856;9.088;2024-02-04T01:12:38;99015.53;;;6.82;96.38
42601;BME280;28229;48.856;9.088;2024-02-04T01:15:05;99007.34;;;6.77;96.91
42601;BME280;28229;48.856;9.088;2024-02-04T01:17:33;99012.91;;;6.82;96.40
42601;BME280;28229;48.856;9.088;2024-02-04T01:19:59;99002.13;;;6.77;96.90
42601;BME280;28229;48.856;9.088;2024-02-04T01:22:26;98998.69;;;6.85;96.65
42601;BME280;28229;48.856;9.088;2024-02-04T01:24:53;98993.47;;;6.85;96.63
42601;BME280;28229;48.856;9.088;2024-02-04T01:27:19;98992.97;;;6.81;96.88
42601;BME280;28229;48.856;9.088;2024-02-04T01:29:46;99002.13;;;6.85;96.54
42601;BME280;28229;48.856;9.088;2024-02-04T01:32:12;99008.00;;;6.88;96.66
42601;BME280;28229;48.856;9.088;2024-02-04T01:34:38;98996.56;;;6.80;96.88
42601;BME280;28229;48.856;9.088;2024-02-04T01:37:04;98986.09;;;6.80;97.16
42601;BME280;28229;48.856;9.088;2024-02-04T01:39:30;98988.72;;;6.80;97.16
42601;BME280;28229;48.856;9.088;2024-02-04T01:41:57;98989.69;;;6.88;97.07
42601;BME280;28229;48.856;9.088;2024-02-04T01:44:24;98990.69;;;6.86;96.95
42601;BME280;28229;48.856;9.088;2024-02-04T01:46:50;98989.84;;;6.86;97.30
42601;BME280;28229;48.856;9.088;2024-02-04T01:49:16;98991.97;;;6.82;97.44
42601;BME280;28229;48.856;9.088;2024-02-04T01:51:42;98985.47;;;6.86;97.02
42601;BME280;28229;48.856;9.088;2024-02-04T01:54:09;98984.13;;;6.82;97.80
42601;BME280;28229;48.856;9.088;2024-02-04T01:56:36;98992.97;;;6.81;97.52
42601;BME280;28229;48.856;9.088;2024-02-04T01:59:02;98999.50;;;6.85;97.65
42601;BME280;28229;48.856;9.088;2024-02-04T02:01:29;98999.19;;;6.89;97.71
42601;BME280;28229;48.856;9.088;2024-02-04T02:03:55;98993.63;;;6.92;97.40
42601;BME280;28229;48.856;9.088;2024-02-04T02:06:22;98994.09;;;6.95;97.43
42601;BME280;28229;48.856;9.088;2024-02-04T02:08:48;98995.25;;;6.93;97.78
42601;BME280;28229;48.856;9.088;2024-02-04T02:11:21;99001.75;;;6.97;97.54
42601;BME280;28229;48.856;9.088;2024-02-04T02:14:00;98995.25;;;6.93;98.20
42601;BME280;28229;48.856;9.088;2024-02-04T02:16:30;98988.34;;;7.00;98.37
42601;BME280;28229;48.856;9.088;2024-02-04T02:22:13;98992.28;;;6.96;98.45
42601;BME280;28229;48.856;9.088;2024-02-04T02:24:42;98986.06;;;6.97;98.92
42601;BME280;28229;48.856;9.088;2024-02-04T02:27:09;98980.50;;;7.00;98.99
42601;BME280;28229;48.856;9.088;2024-02-04T02:29:35;98979.38;;;7.02;99.03
42601;BME280;28229;48.856;9.088;2024-02-04T02:32:02;98980.50;;;7.00;99.18
42601;BME280;28229;48.856;9.088;2024-02-04T02:34:31;98976.44;;;6.97;99.29
42601;BME280;28229;48.856;9.088;2024-02-04T02:37:16;98984.94;;;6.99;99.25
42601;BME280;28229;48.856;9.088;2024-02-04T02:42:45;98981.50;;;6.99;99.67
42601;BME280;28229;48.856;9.088;2024-02-04T02:45:13;98973.28;;;7.02;99.05
42601;BME280;28229;48.856;9.088;2024-02-04T02:47:40;98975.75;;;7.03;98.90
42601;BME280;28229;48.856;9.088;2024-02-04T02:50:08;98969.72;;;7.03;99.12
42601;BME280;28229;48.856;9.088;2024-02-04T02:52:34;98966.75;;;7.06;98.73
42601;BME280;28229;48.856;9.088;2024-02-04T02:55:01;98966.25;;;7.11;98.42
42601;BME280;28229;48.856;9.088;2024-02-04T02:57:27;98971.94;;;7.14;97.93
42601;BME280;28229;48.856;9.088;2024-02-04T02:59:53;98967.03;;;7.11;98.13
42601;BME280;28229;48.856;9.088;2024-02-04T03:02:19;98955.44;;;7.14;97.62
42601;BME280;28229;48.856;9.088;2024-02-04T03:04:46;98956.88;;;7.16;97.34
42601;BME280;28229;48.856;9.088;2024-02-04T03:07:12;98962.31;;;7.15;97.60
42601;BME280;28229;48.856;9.088;2024-02-04T03:09:38;98953.78;;;7.13;98.04
42601;BME280;28229;48.856;9.088;2024-02-04T03:12:05;98966.41;;;7.09;98.25
42601;BME280;28229;48.856;9.088;2024-02-04T03:14:31;98959.03;;;7.13;97.89
42601;BME280;28229;48.856;9.088;2024-02-04T03:16:57;98958.56;;;7.09;98.37
42601;BME280;28229;48.856;9.088;2024-02-04T03:19:23;98953.13;;;7.19;97.44
42601;BME280;28229;48.856;9.088;2024-02-04T03:21:49;98946.41;;;7.16;97.30
42601;BME280;28229;48.856;9.088;2024-02-04T03:24:16;98953.94;;;7.19;97.11
42601;BME280;28229;48.856;9.088;2024-02-04T03:26:42;98947.72;;;7.20;96.72
42601;BME280;28229;48.856;9.088;2024-02-04T03:29:09;98944.66;;;7.17;97.10
42601;BME280;28229;48.856;9.088;2024-02-04T03:31:35;98937.59;;;7.17;97.11
42601;BME280;28229;48.856;9.088;2024-02-04T03:34:02;98948.38;;;7.22;96.50
42601;BME280;28229;48.856;9.088;2024-02-04T03:36:30;98954.88;;;7.27;95.89
42601;BME280;28229;48.856;9.088;2024-02-04T03:38:56;98948.72;;;7.19;96.41
42601;BME280;28229;48.856;9.088;2024-02-04T03:41:22;98949.00;;;7.24;96.44
42601;BME280;28229;48.856;9.088;2024-02-04T03:43:49;98935.13;;;7.24;95.99
42601;BME280;28229;48.856;9.088;2024-02-04T03:46:16;98934.41;;;7.30;96.09
42601;BME280;28229;48.856;9.088;2024-02-04T03:48:43;98944.28;;;7.20;96.17
42601;BME280;28229;48.856;9.088;2024-02-04T03:51:15;98935.13;;;7.24;96.38
42601;BME280;28229;48.856;9.088;2024-02-04T03:53:42;98936.25;;;7.21;96.45
42601;BME280;28229;48.856;9.088;2024-02-04T03:56:09;98930.69;;;7.24;96.17
42601;BME280;28229;48.856;9.088;2024-02-04T03:58:35;98928.56;;;7.28;95.98
42601;BME280;28229;48.856;9.088;2024-02-04T04:01:01;98940.00;;;7.27;96.40
42601;BME280;28229;48.856;9.088;2024-02-04T04:03:27;98954.09;;;7.26;96.13
42601;BME280;28229;48.856;9.088;2024-02-04T04:05:53;98949.81;;;7.25;95.86
42601;BME280;28229;48.856;9.088;2024-02-04T04:08:19;98962.13;;;7.16;95.58
42601;BME280;28229;48.856;9.088;2024-02-04T04:10:46;98961.16;;;7.17;95.60
42601;BME280;28229;48.856;9.088;2024-02-04T04:13:13;98967.66;;;7.21;95.54
42601;BME280;28229;48.856;9.088;2024-02-04T04:15:40;98960.66;;;7.14;96.28
42601;BME280;28229;48.856;9.088;2024-02-04T04:18:08;98960.97;;;7.19;95.94
42601;BME280;28229;48.856;9.088;2024-02-04T04:20:36;98955.59;;;7.20;96.02
42601;BME280;28229;48.856;9.088;2024-02-04T04:23:03;98968.03;;;7.18;96.01
42601;BME280;28229;48.856;9.088;2024-02-04T04:25:29;98970.25;;;7.30;96.00
42601;BME280;28229;48.856;9.088;2024-02-04T04:27:55;98956.88;;;7.24;96.36
42601;BME280;28229;48.856;9.088;2024-02-04T04:30:23;98959.97;;;7.20;97.15
42601;BME280;28229;48.856;9.088;2024-02-04T04:32:49;98964.22;;;7.29;96.83
42601;BME280;28229;48.856;9.088;2024-02-04T04:35:16;98965.03;;;7.30;97.07
42601;BME280;28229;48.856;9.088;2024-02-04T04:37:42;98959.50;;;7.16;97.65
42601;BME280;28229;48.856;9.088;2024-02-04T04:40:08;98965.44;;;7.10;96.50
42601;BME280;28229;48.856;9.088;2024-02-04T04:42:35;98973.25;;;7.18;95.56
42601;BME280;28229;48.856;9.088;2024-02-04T04:45:01;98974.88;;;7.19;95.07
42601;BME280;28229;48.856;9.088;2024-02-04T04:47:27;98970.97;;;7.15;95.22
42601;BME280;28229;48.856;9.088;2024-02-04T04:49:53;98972.28;;;7.11;94.88
42601;BME280;28229;48.856;9.088;2024-02-04T04:52:22;98976.53;;;7.12;95.11
42601;BME280;28229;48.856;9.088;2024-02-04T04:54:48;98979.22;;;6.96;96.69
42601;BME280;28229;48.856;9.088;2024-02-04T04:57:14;98973.59;;;7.07;97.40
42601;BME280;28229;48.856;9.088;2024-02-04T04:59:41;98970.66;;;7.10;97.19
42601;BME280;28229;48.856;9.088;2024-02-04T05:02:07;98973.59;;;7.15;96.66
42601;BME280;28229;48.856;9.088;2024-02-04T05:04:33;98972.25;;;7.19;96.13
42601;BME280;28229;48.856;9.088;2024-02-04T05:06:59;98959.00;;;7.21;95.99
42601;BME280;28229;48.856;9.088;2024-02-04T05:09:25;98958.38;;;7.19;96.20
42601;BME280;28229;48.856;9.088;2024-02-04T05:11:52;98954.59;;;7.21;96.30
42601;BME280;28229;48.856;9.088;2024-02-04T05:14:18;98958.19;;;7.20;96.31
42601;BME280;28229;48.856;9.088;2024-02-04T05:16:44;98960.50;;;7.15;96.53
42601;BME280;28229;48.856;9.088;2024-02-04T05:19:11;98959.97;;;7.20;96.51
42601;BME280;28229;48.856;9.088;2024-02-04T05:21:39;98965.69;;;7.23;96.18
42601;BME280;28229;48.856;9.088;2024-02-04T05:24:06;98970.94;;;7.23;96.15
42601;BME280;28229;48.856;9.088;2024-02-04T05:26:32;98966.38;;;7.17;96.10
42601;BME280;28229;48.856;9.088;2024-02-04T05:28:58;98950.69;;;7.17;96.23
42601;BME280;28229;48.856;9.088;2024-02-04T05:31:24;98951.81;;;7.23;96.07
42601;BME280;28229;48.856;9.088;2024-02-04T05:33:52;98949.50;;;7.20;95.93
42601;BME280;28229;48.856;9.088;2024-02-04T05:36:19;98948.38;;;7.22;95.80
42601;BME280;28229;48.856;9.088;2024-02-04T05:38:45;98951.97;;;7.21;96.11
42601;BME280;28229;48.856;9.088;2024-02-04T05:41:11;98962.44;;;7.21;95.63
42601;BME280;28229;48.856;9.088;2024-02-04T05:43:38;98967.34;;;7.24;95.36
42601;BME280;28229;48.856;9.088;2024-02-04T05:46:05;98978.97;;;7.22;95.72
42601;BME280;28229;48.856;9.088;2024-02-04T05:48:31;98986.28;;;7.27;94.97
42601;BME280;28229;48.856;9.088;2024-02-04T05:50:57;98978.59;;;7.33;95.08
42601;BME280;28229;48.856;9.088;2024-02-04T05:53:25;98971.88;;;7.31;95.16
42601;BME280;28229;48.856;9.088;2024-02-04T05:55:51;98969.94;;;7.33;95.00
42601;BME280;28229;48.856;9.088;2024-02-04T05:58:17;98968.97;;;7.26;95.20
42601;BME280;28229;48.856;9.088;2024-02-04T06:00:43;98988.06;;;7.34;94.74
42601;BME280;28229;48.856;9.088;2024-02-04T06:03:09;98977.09;;;7.31;95.06
42601;BME280;28229;48.856;9.088;2024-02-04T06:05:35;98974.84;;;7.28;94.92
42601;BME280;28229;48.856;9.088;2024-02-04T06:08:02;98968.28;;;7.32;94.35
42601;BME280;28229;48.856;9.088;2024-02-04T06:10:28;98987.25;;;7.34;94.50
42601;BME280;28229;48.856;9.088;2024-02-04T06:12:54;98983.66;;;7.35;94.31
42601;BME280;28229;48.856;9.088;2024-02-04T06:15:20;98999.00;;;7.38;94.19
42601;BME280;28229;48.856;9.088;2024-02-04T06:17:47;98983.78;;;7.41;93.49
42601;BME280;28229;48.856;9.088;2024-02-04T06:20:13;98989.50;;;7.45;93.41
42601;BME280;28229;48.856;9.088;2024-02-04T06:22:39;98990.81;;;7.41;93.53
42601;BME280;28229;48.856;9.088;2024-02-04T06:25:06;98991.63;;;7.41;93.74
42601;BME280;28229;48.856;9.088;2024-02-04T06:27:32;98984.94;;;7.39;93.74
42601;BME280;28229;48.856;9.088;2024-02-04T06:29:58;98983.59;;;7.43;93.09
42601;BME280;28229;48.856;9.088;2024-02-04T06:32:25;98997.88;;;7.40;93.37
42601;BME280;28229;48.856;9.088;2024-02-04T06:34:51;98993.78;;;7.38;93.26
42601;BME280;28229;48.856;9.088;2024-02-04T06:37:17;98996.22;;;7.39;93.16
42601;BME280;28229;48.856;9.088;2024-02-04T06:39:44;98990.41;;;7.29;93.30
42601;BME280;28229;48.856;9.088;2024-02-04T06:42:10;98996.44;;;7.30;93.36
42601;BME280;28229;48.856;9.088;2024-02-04T06:44:37;99000.66;;;7.31;93.28
42601;BME280;28229;48.856;9.088;2024-02-04T06:47:03;99008.03;;;7.35;93.05
42601;BME280;28229;48.856;9.088;2024-02-04T06:49:29;99004.13;;;7.31;92.81
42601;BME280;28229;48.856;9.088;2024-02-04T06:51:55;99007.41;;;7.25;93.74
42601;BME280;28229;48.856;9.088;2024-02-04T06:54:23;99008.53;;;7.31;93.41
42601;BME280;28229;48.856;9.088;2024-02-04T06:56:51;99014.28;;;7.18;93.97
42601;BME280;28229;48.856;9.088;2024-02-04T06:59:18;99013.97;;;7.21;93.59
42601;BME280;28229;48.856;9.088;2024-02-04T07:01:44;99002.81;;;7.27;93.43
42601;BME280;28229;48.856;9.088;2024-02-04T07:04:10;98988.59;;;7.21;93.73
42601;BME280;28229;48.856;9.088;2024-02-04T07:06:37;98989.59;;;7.20;93.93
42601;BME280;28229;48.856;9.088;2024-02-04T07:09:03;98986.16;;;7.20;93.71
42601;BME280;28229;48.856;9.088;2024-02-04T07:11:29;98979.63;;;7.24;95.66
42601;BME280;28229;48.856;9.088;2024-02-04T07:13:55;98979.72;;;7.39;96.43
42601;BME280;28229;48.856;9.088;2024-02-04T07:16:26;98981.34;;;7.40;94.19
42601;BME280;28229;48.856;9.088;2024-02-04T07:18:52;98972.03;;;7.37;93.36
42601;BME280;28229;48.856;9.088;2024-02-04T07:21:18;98968.19;;;7.48;94.59
42601;BME280;28229;48.856;9.088;2024-02-04T07:23:44;98971.53;;;7.34;94.00
42601;BME280;28229;48.856;9.088;2024-02-04T07:26:11;98967.31;;;7.33;93.47
42601;BME280;28229;48.856;9.088;2024-02-04T07:28:38;98976.78;;;7.34;93.53
42601;BME280;28229;48.856;9.088;2024-02-04T07:31:04;98970.03;;;7.39;93.26
42601;BME280;28229;48.856;9.088;2024-02-04T07:33:30;98983.91;;;7.48;93.13
42601;BME280;28229;48.856;9.088;2024-02-04T07:35:56;98979.16;;;7.52;92.93
42601;BME280;28229;48.856;9.088;2024-02-04T07:38:22;98982.63;;;7.44;93.04
42601;BME280;28229;48.856;9.088;2024-02-04T07:40:48;98981.59;;;7.53;92.76
42601;BME280;28229;48.856;9.088;2024-02-04T07:43:14;98996.28;;;7.62;92.59
42601;BME280;28229;48.856;9.088;2024-02-04T07:45:41;98990.38;;;7.69;92.43
42601;BME280;28229;48.856;9.088;2024-02-04T07:48:07;98992.91;;;7.77;92.02
42601;BME280;28229;48.856;9.088;2024-02-04T07:50:35;98985.94;;;7.69;92.72
42601;BME280;28229;48.856;9.088;2024-02-04T07:53:01;98985.72;;;7.79;92.28
42601;BME280;28229;48.856;9.088;2024-02-04T07:55:27;98981.94;;;7.81;92.07
42601;BME280;28229;48.856;9.088;2024-02-04T07:57:53;98968.59;;;7.91;91.80
42601;BME280;28229;48.856;9.088;2024-02-04T08:00:19;98972.81;;;8.00;91.53
42601;BME280;28229;48.856;9.088;2024-02-04T08:02:46;98966.56;;;8.01;91.12
42601;BME280;28229;48.856;9.088;2024-02-04T08:05:13;98968.13;;;8.11;91.79
42601;BME280;28229;48.856;9.088;2024-02-04T08:07:39;98972.34;;;8.20;91.23
42601;BME280;28229;48.856;9.088;2024-02-04T08:10:07;98969.47;;;8.30;92.31
42601;BME280;28229;48.856;9.088;2024-02-04T08:12:33;98971.50;;;8.43;90.16
42601;BME280;28229;48.856;9.088;2024-02-04T08:15:00;98979.66;;;8.48;88.70
42601;BME280;28229;48.856;9.088;2024-02-04T08:17:26;98980.66;;;8.47;87.80
42601;BME280;28229;48.856;9.088;2024-02-04T08:19:54;98992.25;;;8.52;88.98
42601;BME280;28229;48.856;9.088;2024-02-04T08:22:20;98980.66;;;8.47;88.76
42601;BME280;28229;48.856;9.088;2024-02-04T08:24:46;98971.97;;;8.46;88.64
42601;BME280;28229;48.856;9.088;2024-02-04T08:27:13;98973.16;;;8.44;88.85
42601;BME280;28229;48.856;9.088;2024-02-04T08:29:42;98971.97;;;8.46;88.71
42601;BME280;28229;48.856;9.088;2024-02-04T08:32:08;98974.88;;;8.51;88.66
42601;BME280;28229;48.856;9.088;2024-02-04T08:34:35;98971.09;;;8.54;88.61
42601;BME280;28229;48.856;9.088;2024-02-04T08:37:04;98984.22;;;8.54;89.09
42601;BME280;28229;48.856;9.088;2024-02-04T08:39:30;98983.19;;;8.55;89.01
42601;BME280;28229;48.856;9.088;2024-02-04T08:41:56;98987.28;;;8.57;88.65
42601;BME280;28229;48.856;9.088;2024-02-04T08:44:25;98990.72;;;8.58;88.60
42601;BME280;28229;48.856;9.088;2024-02-04T08:46:51;98988.03;;;8.66;87.83
42601;BME280;28229;48.856;9.088;2024-02-04T08:49:17;98980.84;;;8.60;87.94
42601;BME280;28229;48.856;9.088;2024-02-04T08:51:43;98979.78;;;8.69;88.36
42601;BME280;28229;48.856;9.088;2024-02-04T08:54:09;98971.16;;;8.61;88.76
42601;BME280;28229;48.856;9.088;2024-02-04T08:56:37;98966.66;;;8.69;87.98
42601;BME280;28229;48.856;9.088;2024-02-04T08:59:03;98971.22;;;8.75;87.27
42601;BME280;28229;48.856;9.088;2024-02-04T09:01:32;98973.28;;;8.80;87.10
42601;BME280;28229;48.856;9.088;2024-02-04T09:03:58;98975.72;;;8.82;86.15
42601;BME280;28229;48.856;9.088;2024-02-04T09:06:24;98970.03;;;8.78;86.79
42601;BME280;28229;48.856;9.088;2024-02-04T09:08:50;98959.63;;;8.85;86.65
42601;BME280;28229;48.856;9.088;2024-02-04T09:11:17;98959.28;;;8.88;87.26
42601;BME280;28229;48.856;9.088;2024-02-04T09:13:45;98968.31;;;9.00;87.13
42601;BME280;28229;48.856;9.088;2024-02-04T09:16:11;98988.06;;;9.11;86.40
42601;BME280;28229;48.856;9.088;2024-02-04T09:18:37;98987.03;;;9.12;85.36
42601;BME280;28229;48.856;9.088;2024-02-04T09:21:03;98979.88;;;9.21;85.35
42601;BME280;28229;48.856;9.088;2024-02-04T09:23:30;98987.13;;;9.19;84.58
42601;BME280;28229;48.856;9.088;2024-02-04T09:25:56;98995.28;;;9.24;84.46
42601;BME280;28229;48.856;9.088;2024-02-04T09:28:22;98991.38;;;9.20;85.02
42601;BME280;28229;48.856;9.088;2024-02-04T09:30:48;98978.47;;;9.18;84.22
42601;BME280;28229;48.856;9.088;2024-02-04T09:33:15;98989.94;;;9.17;84.64
42601;BME280;28229;48.856;9.088;2024-02-04T09:35:41;98993.19;;;9.19;84.46
42601;BME280;28229;48.856;9.088;2024-02-04T09:38:07;98988.75;;;9.34;83.86
42601;BME280;28229;48.856;9.088;2024-02-04T09:40:33;98991.97;;;9.51;83.98
42601;BME280;28229;48.856;9.088;2024-02-04T09:43:01;98993.75;;;9.66;82.37
42601;BME280;28229;48.856;9.088;2024-02-04T09:45:27;99011.59;;;9.70;81.59
42601;BME280;28229;48.856;9.088;2024-02-04T09:47:54;98987.91;;;9.85;80.60
42601;BME280;28229;48.856;9.088;2024-02-04T09:50:20;98998.81;;;10.04;79.04
42601;BME280;28229;48.856;9.088;2024-02-04T09:52:49;98985.78;;;10.17;80.42
42601;BME280;28229;48.856;9.088;2024-02-04T09:55:20;98975.50;;;10.22;78.98
42601;BME280;28229;48.856;9.088;2024-02-04T09:57:49;98963.38;;;10.21;79.87
42601;BME280;28229;48.856;9.088;2024-02-04T10:00:18;98948.47;;;10.07;78.80
42601;BME280;28229;48.856;9.088;2024-02-04T10:02:48;98946.50;;;10.09;79.99
42601;BME280;28229;48.856;9.088;2024-02-04T10:05:17;98946.84;;;10.06;79.07
42601;BME280;28229;48.856;9.088;2024-02-04T10:07:43;98925.69;;;9.93;78.55
42601;BME280;28229;48.856;9.088;2024-02-04T10:10:10;98930.69;;;9.87;79.53
42601;BME280;28229;48.856;9.088;2024-02-04T10:12:37;98930.09;;;9.85;79.73
42601;BME280;28229;48.856;9.088;2024-02-04T10:15:05;98917.97;;;9.84;78.81
42601;BME280;28229;48.856;9.088;2024-02-04T10:17:32;98919.97;;;9.82;79.26
42601;BME280;28229;48.856;9.088;2024-02-04T10:20:00;98922.69;;;9.96;79.20
42601;BME280;28229;48.856;9.088;2024-02-04T10:22:26;98914.00;;;9.95;78.52
42601;BME280;28229;48.856;9.088;2024-02-04T10:24:54;98915.94;;;9.86;79.23
42601;BME280;28229;48.856;9.088;2024-02-04T10:27:31;98943.09;;;9.94;78.24
42601;BME280;28229;48.856;9.088;2024-02-04T10:29:57;98937.94;;;10.07;77.96
42601;BME280;28229;48.856;9.088;2024-02-04T10:32:23;98933.97;;;10.11;79.13
42601;BME280;28229;48.856;9.088;2024-02-04T10:34:49;98934.09;;;10.03;79.77
42601;BME280;28229;48.856;9.088;2024-02-04T10:37:16;98947.47;;;10.08;78.41
42601;BME280;28229;48.856;9.088;2024-02-04T10:39:42;98947.97;;;10.18;78.32
42601;BME280;28229;48.856;9.088;2024-02-04T10:42:08;98937.31;;;10.26;78.07
42601;BME280;28229;48.856;9.088;2024-02-04T10:44:35;98945.78;;;10.43;78.17
42601;BME280;28229;48.856;9.088;2024-02-04T10:47:05;98948.22;;;10.80;77.26
42601;BME280;28229;48.856;9.088;2024-02-04T10:49:33;98949.97;;;11.01;75.48
42601;BME280;28229;48.856;9.088;2024-02-04T10:52:01;98944.00;;;11.20;75.09
42601;BME280;28229;48.856;9.088;2024-02-04T10:54:30;98951.31;;;11.25;74.46
42601;BME280;28229;48.856;9.088;2024-02-04T10:57:05;98954.91;;;11.17;74.12
42601;BME280;28229;48.856;9.088;2024-02-04T10:59:32;98940.72;;;11.12;73.85
42601;BME280;28229;48.856;9.088;2024-02-04T11:01:59;98928.22;;;11.27;73.27
42601;BME280;28229;48.856;9.088;2024-02-04T11:04:26;98922.88;;;11.75;75.50
42601;BME280;28229;48.856;9.088;2024-02-04T11:06:53;98908.94;;;12.02;72.66
42601;BME280;28229;48.856;9.088;2024-02-04T11:09:20;98914.41;;;12.13;71.97
42601;BME280;28229;48.856;9.088;2024-02-04T11:11:47;98899.81;;;12.04;70.60
42601;BME280;28229;48.856;9.088;2024-02-04T11:14:16;98908.47;;;11.78;70.91
42601;BME280;28229;48.856;9.088;2024-02-04T11:19:38;98918.66;;;12.41;71.78
42601;BME280;28229;48.856;9.088;2024-02-04T11:25:33;98923.91;;;12.54;68.31
42601;BME280;28229;48.856;9.088;2024-02-04T11:28:05;98920.50;;;12.27;69.02
42601;BME280;28229;48.856;9.088;2024-02-04T11:30:35;98921.94;;;12.16;70.40
42601;BME280;28229;48.856;9.088;2024-02-04T11:33:06;98908.53;;;11.98;70.22
42601;BME280;28229;48.856;9.088;2024-02-04T11:35:33;98897.13;;;11.64;70.96
42601;BME280;28229;48.856;9.088;2024-02-04T11:38:01;98884.13;;;11.69;71.33
42601;BME280;28229;48.856;9.088;2024-02-04T11:40:34;98897.53;;;11.81;70.61
42601;BME280;28229;48.856;9.088;2024-02-04T11:43:05;98886.19;;;11.87;71.27
42601;BME280;28229;48.856;9.088;2024-02-04T11:45:31;98882.97;;;11.92;70.52
42601;BME280;28229;48.856;9.088;2024-02-04T11:48:01;98876.91;;;11.98;69.27
42601;BME280;28229;48.856;9.088;2024-02-04T11:50:31;98875.66;;;11.94;69.92
42601;BME280;28229;48.856;9.088;2024-02-04T11:53:11;98866.53;;;12.10;70.29
42601;BME280;28229;48.856;9.088;2024-02-04T11:55:40;98860.25;;;12.04;70.52
42601;BME280;28229;48.856;9.088;2024-02-04T11:58:07;98848.47;;;11.73;71.34
42601;BME280;28229;48.856;9.088;2024-02-04T12:00:35;98847.63;;;11.53;72.76
42601;BME280;28229;48.856;9.088;2024-02-04T12:03:03;98829.53;;;11.30;72.89
42601;BME280;28229;48.856;9.088;2024-02-04T12:05:34;98842.28;;;11.19;72.85
42601;BME280;28229;48.856;9.088;2024-02-04T12:08:04;98840.69;;;11.38;73.99
42601;BME280;28229;48.856;9.088;2024-02-04T12:10:32;98839.50;;;11.54;73.60
42601;BME280;28229;48.856;9.088;2024-02-04T12:12:59;98833.19;;;11.35;73.52
42601;BME280;28229;48.856;9.088;2024-02-04T12:15:28;98824.47;;;11.28;72.72
42601;BME280;28229;48.856;9.088;2024-02-04T12:17:54;98826.50;;;11.19;73.40
42601;BME280;28229;48.856;9.088;2024-02-04T12:20:21;98835.13;;;10.93;74.66
42601;BME280;28229;48.856;9.088;2024-02-04T12:22:47;98838.91;;;10.77;74.68
42601;BME280;28229;48.856;9.088;2024-02-04T12:25:16;98836.41;;;10.62;75.13
42601;BME280;28229;48.856;9.088;2024-02-04T12:27:43;98840.03;;;10.61;75.34
42601;BME280;28229;48.856;9.088;2024-02-04T12:30:10;98838.81;;;10.57;76.45
42601;BME280;28229;48.856;9.088;2024-02-04T12:32:36;98838.63;;;10.59;76.20
42601;BME280;28229;48.856;9.088;2024-02-04T12:35:02;98845.25;;;10.55;76.63
42601;BME280;28229;48.856;9.088;2024-02-04T12:37:29;98846.09;;;10.62;77.44
42601;BME280;28229;48.856;9.088;2024-02-04T12:39:56;98845.31;;;10.61;76.38
42601;BME280;28229;48.856;9.088;2024-02-04T12:42:23;98833.56;;;10.64;76.67
42601;BME280;28229;48.856;9.088;2024-02-04T12:44:49;98837.47;;;10.75;75.80
42601;BME280;28229;48.856;9.088;2024-02-04T12:47:19;98837.25;;;10.70;75.43
42601;BME280;28229;48.856;9.088;2024-02-04T12:49:46;98831.16;;;10.62;76.43
42601;BME280;28229;48.856;9.088;2024-02-04T12:52:12;98831.19;;;10.76;75.48
42601;BME280;28229;48.856;9.088;2024-02-04T12:54:44;98810.75;;;10.78;76.06
42601;BME280;28229;48.856;9.088;2024-02-04T12:57:22;98805.97;;;10.95;75.78
42601;BME280;28229;48.856;9.088;2024-02-04T12:59:49;98812.09;;;11.15;75.13
42601;BME280;28229;48.856;9.088;2024-02-04T13:02:16;98816.00;;;11.46;75.73
42601;BME280;28229;48.856;9.088;2024-02-04T13:04:42;98807.47;;;11.51;74.18
42601;BME280;28229;48.856;9.088;2024-02-04T13:07:10;98823.91;;;11.39;74.54
42601;BME280;28229;48.856;9.088;2024-02-04T13:09:37;98814.38;;;11.52;73.59
42601;BME280;28229;48.856;9.088;2024-02-04T13:12:05;98808.09;;;11.66;73.61
42601;BME280;28229;48.856;9.088;2024-02-04T13:14:31;98809.94;;;11.92;72.64
42601;BME280;28229;48.856;9.088;2024-02-04T13:16:57;98808.31;;;12.18;70.59
42601;BME280;28229;48.856;9.088;2024-02-04T13:19:24;98809.94;;;11.99;71.44